Time;durP1;ratioP1;P1;durP2;ratioP2;P2;SDS_P1;SDS_P2;PMS_P1;PMS_P2;Temp;Humidity;BMP_temperature;BMP_pressure;BME280_temperature;BME280_humidity;BME280_pressure;Samples;Min_cycle;Max_cycle;Signal;HPM_P1;HPM_P2
2022/03/20 00:02:25;;;;;;;;;;;;;;;7.68;41.91;102672.38;5052334;28;19921;-78
2022/03/20 00:04:50;;;;;;;;;;;;;;;7.76;41.58;102669.09;5058414;28;20391;-79
2022/03/20 00:07:15;;;;;;;;;;;;;;;7.81;41.51;102660.56;5056401;28;19925;-79
2022/03/20 00:09:41;;;;;;;;;;;;;;;7.50;42.07;102669.38;5057911;28;19920;-78
2022/03/20 00:12:07;;;;;;;;;;;;;;;7.52;42.34;102664.25;5051634;28;20011;-78
2022/03/20 00:14:32;;;;;;;;;;;;;;;7.64;42.85;102657.63;5055406;28;19924;-79
2022/03/20 00:16:57;;;;;;;;;;;;;;;7.62;42.12;102656.72;5056516;28;19990;-79
2022/03/20 00:19:23;;;;;;;;;;;;;;;7.50;43.25;102660.75;5051241;28;19921;-79
2022/03/20 00:21:49;;;;;;;;;;;;;;;7.32;44.08;102663.81;5057427;28;19930;-80
2022/03/20 00:24:15;;;;;;;;;;;;;;;7.39;43.96;102664.81;5047079;28;19920;-79
2022/03/20 00:26:42;;;;;;;;;;;;;;;7.30;42.82;102662.03;5048029;28;19929;-80
2022/03/20 00:29:07;;;;;;;;;;;;;;;7.30;44.42;102659.44;5061706;28;19967;-80
2022/03/20 00:31:33;;;;;;;;;;;;;;;7.19;43.13;102655.75;5056439;28;19955;-81
2022/03/20 00:34:00;;;;;;;;;;;;;;;7.16;43.26;102645.34;5045898;28;20297;-81
2022/03/20 00:36:26;;;;;;;;;;;;;;;7.46;44.81;102643.44;5061440;28;20588;-81
2022/03/20 00:38:51;;;;;;;;;;;;;;;7.52;42.99;102636.66;5062674;28;19929;-81
2022/03/20 00:41:16;;;;;;;;;;;;;;;7.12;44.14;102639.22;5055978;28;20328;-81
2022/03/20 00:43:42;;;;;;;;;;;;;;;7.08;44.11;102634.81;5048600;28;19921;-81
2022/03/20 00:46:09;;;;;;;;;;;;;;;7.06;44.84;102628.75;5048786;28;19925;-81
2022/03/20 00:48:34;;;;;;;;;;;;;;;7.18;44.91;102628.16;5051402;28;19970;-79
2022/03/20 00:51:03;;;;;;;;;;;;;;;7.14;44.13;102615.16;5064531;28;19948;-79
2022/03/20 00:53:29;;;;;;;;;;;;;;;7.03;44.73;102619.22;5053704;28;19924;-79
2022/03/20 00:55:54;;;;;;;;;;;;;;;6.95;43.92;102617.31;5062744;28;20395;-80
2022/03/20 00:58:20;;;;;;;;;;;;;;;6.80;45.52;102616.94;5060810;28;19921;-80
2022/03/20 01:00:46;;;;;;;;;;;;;;;6.92;44.92;102612.94;5040688;28;19928;-80
2022/03/20 01:03:11;;;;;;;;;;;;;;;6.87;44.58;102614.53;5056138;28;19917;-79
2022/03/20 01:05:37;;;;;;;;;;;;;;;6.91;44.58;102611.19;5047017;28;20488;-79
2022/03/20 01:08:02;;;;;;;;;;;;;;;6.90;44.13;102612.00;5058544;28;19925;-80
2022/03/20 01:10:28;;;;;;;;;;;;;;;6.93;45.22;102606.06;5061410;28;19927;-79
2022/03/20 01:12:54;;;;;;;;;;;;;;;6.90;43.40;102598.25;5058868;28;19924;-81
2022/03/20 01:15:19;;;;;;;;;;;;;;;6.75;44.49;102592.72;5056779;28;19925;-81
2022/03/20 01:17:44;;;;;;;;;;;;;;;6.84;43.60;102593.78;5060513;28;19924;-81
2022/03/20 01:20:11;;;;;;;;;;;;;;;6.78;45.50;102588.47;5035063;28;19971;-81
2022/03/20 01:22:37;;;;;;;;;;;;;;;6.79;44.10;102581.59;5061371;28;19930;-81
2022/03/20 01:25:04;;;;;;;;;;;;;;;6.96;44.63;102581.16;5059146;28;20015;-81
2022/03/20 01:27:29;;;;;;;;;;;;;;;7.11;43.76;102575.44;5058097;28;19960;-75
2022/03/20 01:29:54;;;;;;;;;;;;;;;7.05;44.97;102575.31;5058310;28;19967;-78
2022/03/20 01:32:20;;;;;;;;;;;;;;;7.14;45.13;102563.47;5052462;28;19928;-81
2022/03/20 01:34:47;;;;;;;;;;;;;;;7.02;46.03;102578.69;5056381;28;20427;-78
2022/03/20 01:37:12;;;;;;;;;;;;;;;7.05;45.10;102557.22;5035549;28;19917;-79
2022/03/20 01:39:37;;;;;;;;;;;;;;;6.95;45.20;102557.88;5054785;28;20003;-79
2022/03/20 01:42:05;;;;;;;;;;;;;;;6.79;45.28;102554.06;5045592;28;19940;-79
2022/03/20 01:44:30;;;;;;;;;;;;;;;6.90;44.80;102538.81;5034984;28;19924;-79
2022/03/20 01:46:56;;;;;;;;;;;;;;;7.08;43.80;102541.78;5044352;28;20005;-79
2022/03/20 01:49:21;;;;;;;;;;;;;;;7.16;43.31;102542.84;5039256;28;19920;-81
2022/03/20 01:54:30;;;;;;;;;;;;;;;7.03;44.22;102525.31;5059410;28;20423;-79
2022/03/20 01:56:56;;;;;;;;;;;;;;;6.93;45.11;102518.22;5058687;28;19929;-80
2022/03/20 01:59:21;;;;;;;;;;;;;;;6.59;45.10;102514.00;5056081;28;19921;-80
2022/03/20 02:01:46;;;;;;;;;;;;;;;6.55;46.16;102512.19;5048281;28;20313;-81
2022/03/20 02:04:14;;;;;;;;;;;;;;;6.88;46.32;102509.47;5044455;28;19927;-82
2022/03/20 02:06:43;;;;;;;;;;;;;;;6.82;46.32;102502.47;5052081;28;19921;-81
2022/03/20 02:09:12;;;;;;;;;;;;;;;6.85;46.70;102502.53;5052127;28;19920;-82
2022/03/20 02:11:37;;;;;;;;;;;;;;;6.90;46.55;102498.34;5047249;28;19967;-82
2022/03/20 02:14:04;;;;;;;;;;;;;;;6.73;44.67;102491.94;5047685;28;19924;-81
2022/03/20 02:16:29;;;;;;;;;;;;;;;6.93;45.16;102484.66;5058870;28;19924;-81
2022/03/20 02:18:55;;;;;;;;;;;;;;;6.78;44.41;102481.72;5053041;28;20386;-81
2022/03/20 02:21:39;;;;;;;;;;;;;;;6.73;45.32;102486.78;5061185;28;20015;-81
2022/03/20 02:24:05;;;;;;;;;;;;;;;6.80;45.36;102473.16;5049942;28;19943;-81
2022/03/20 02:26:30;;;;;;;;;;;;;;;6.68;45.27;102472.03;5059689;28;20459;-82
2022/03/20 02:28:55;;;;;;;;;;;;;;;6.68;45.96;102477.19;5055461;28;20498;-81
2022/03/20 02:31:21;;;;;;;;;;;;;;;6.75;45.23;102471.34;5044141;28;19920;-81
2022/03/20 02:33:46;;;;;;;;;;;;;;;6.70;44.90;102457.44;5045640;28;19920;-81
2022/03/20 02:36:12;;;;;;;;;;;;;;;6.72;44.31;102455.78;5050110;28;19923;-81
2022/03/20 02:38:37;;;;;;;;;;;;;;;6.66;44.48;102453.94;5051234;28;19925;-82
2022/03/20 02:41:14;;;;;;;;;;;;;;;6.65;45.02;102452.19;5055576;28;19944;-81
2022/03/20 02:43:49;;;;;;;;;;;;;;;6.73;44.82;102450.63;5047677;28;19989;-81
2022/03/20 02:46:15;;;;;;;;;;;;;;;6.54;44.63;102441.59;5052506;28;19931;-79
2022/03/20 02:48:41;;;;;;;;;;;;;;;6.56;44.98;102439.06;5048319;28;20512;-81
2022/03/20 02:51:06;;;;;;;;;;;;;;;6.62;44.79;102441.78;5050481;28;19958;-81
2022/03/20 02:53:34;;;;;;;;;;;;;;;6.73;43.04;102437.72;5055723;28;19921;-82
2022/03/20 02:56:00;;;;;;;;;;;;;;;6.73;43.15;102434.25;5052628;28;20018;-81
2022/03/20 02:58:26;;;;;;;;;;;;;;;6.60;42.82;102438.31;5055363;28;20283;-81
2022/03/20 03:00:54;;;;;;;;;;;;;;;6.52;43.19;102432.94;5053453;28;20339;-75
2022/03/20 03:03:19;;;;;;;;;;;;;;;6.54;44.60;102433.84;5054693;28;19915;-80
2022/03/20 03:05:45;;;;;;;;;;;;;;;6.35;43.81;102433.38;5048994;28;19925;-80
2022/03/20 03:11:01;;;;;;;;;;;;;;;6.24;44.66;102422.84;5049648;28;19987;-81
2022/03/20 03:13:36;;;;;;;;;;;;;;;6.09;44.62;102424.16;5050901;28;20011;-81
2022/03/20 03:16:05;;;;;;;;;;;;;;;5.93;45.17;102418.63;5045842;28;19921;-81
2022/03/20 03:18:31;;;;;;;;;;;;;;;5.90;44.97;102418.56;5057968;28;20004;-75
2022/03/20 03:20:57;;;;;;;;;;;;;;;5.81;45.83;102422.63;5050400;28;19971;-80
2022/03/20 03:23:24;;;;;;;;;;;;;;;5.87;44.77;102415.91;5048189;28;20339;-80
2022/03/20 03:25:50;;;;;;;;;;;;;;;5.80;44.78;102413.16;5059630;28;20466;-75
2022/03/20 03:28:16;;;;;;;;;;;;;;;5.80;45.15;102414.00;5055994;28;20131;-81
2022/03/20 03:30:43;;;;;;;;;;;;;;;5.45;45.55;102405.41;5044393;28;19921;-81
2022/03/20 03:33:09;;;;;;;;;;;;;;;5.64;46.19;102411.03;5056148;28;19913;-74
2022/03/20 03:35:47;;;;;;;;;;;;;;;5.79;45.89;102401.09;5033789;28;19925;-74
2022/03/20 03:38:16;;;;;;;;;;;;;;;5.69;46.75;102392.25;5045027;28;19925;-75
2022/03/20 03:40:43;;;;;;;;;;;;;;;5.81;45.57;102387.41;5050185;28;19925;-74
2022/03/20 03:43:09;;;;;;;;;;;;;;;5.84;46.18;102381.44;5044682;28;20434;-80
2022/03/20 03:45:35;;;;;;;;;;;;;;;5.59;45.03;102376.53;5046142;28;20011;-80
2022/03/20 03:48:01;;;;;;;;;;;;;;;5.82;45.52;102376.25;5039643;28;19963;-80
2022/03/20 03:50:27;;;;;;;;;;;;;;;5.90;45.30;102376.44;5050287;28;19925;-79
2022/03/20 03:52:52;;;;;;;;;;;;;;;5.63;45.26;102370.59;5060098;28;19957;-80
2022/03/20 03:55:18;;;;;;;;;;;;;;;5.75;46.03;102369.19;5049147;28;19951;-80
2022/03/20 03:57:44;;;;;;;;;;;;;;;5.37;45.79;102364.81;5051903;28;19920;-80
2022/03/20 04:00:10;;;;;;;;;;;;;;;5.49;46.44;102359.97;5055031;28;19923;-80
2022/03/20 04:02:35;;;;;;;;;;;;;;;5.81;45.31;102358.16;5049004;28;20011;-80
2022/03/20 04:05:00;;;;;;;;;;;;;;;5.78;44.19;102353.81;5055905;28;19929;-82
2022/03/20 04:07:26;;;;;;;;;;;;;;;5.92;45.08;102349.81;5052913;28;19932;-81
2022/03/20 04:09:51;;;;;;;;;;;;;;;5.94;44.57;102348.19;5051811;28;20435;-81
2022/03/20 04:12:16;;;;;;;;;;;;;;;5.72;44.94;102353.66;5056576;28;19928;-82
2022/03/20 04:14:42;;;;;;;;;;;;;;;5.71;44.47;102346.75;5060918;28;19921;-81
2022/03/20 04:17:08;;;;;;;;;;;;;;;5.41;45.51;102346.03;5058794;28;19964;-81
2022/03/20 04:19:33;;;;;;;;;;;;;;;5.54;45.08;102349.75;5046506;28;19920;-81
2022/03/20 04:21:59;;;;;;;;;;;;;;;5.42;45.63;102340.88;5049777;28;19924;-79
2022/03/20 04:24:24;;;;;;;;;;;;;;;5.56;45.65;102332.63;5050065;28;19962;-78
2022/03/20 04:26:50;;;;;;;;;;;;;;;5.21;46.54;102337.75;5059992;28;19925;-79
2022/03/20 04:29:15;;;;;;;;;;;;;;;5.50;45.94;102335.06;5057172;28;19920;-81
2022/03/20 04:31:40;;;;;;;;;;;;;;;5.67;44.68;102321.75;5055800;28;19921;-75
2022/03/20 04:34:06;;;;;;;;;;;;;;;5.39;45.89;102332.19;5051487;28;19921;-81
2022/03/20 04:36:34;;;;;;;;;;;;;;;5.43;45.87;102324.59;5051782;28;19956;-80
2022/03/20 04:39:00;;;;;;;;;;;;;;;5.32;46.15;102326.03;5057528;28;19929;-80
2022/03/20 04:41:26;;;;;;;;;;;;;;;5.16;46.47;102331.63;5044748;28;19996;-80
2022/03/20 04:43:52;;;;;;;;;;;;;;;5.21;46.97;102322.31;5052068;28;20020;-81
2022/03/20 04:46:18;;;;;;;;;;;;;;;5.55;46.04;102323.16;5056233;28;19925;-82
2022/03/20 04:59:39;;;;;;;;;;;;;;;5.26;47.96;102304.41;5051128;28;19928;-80
2022/03/20 05:02:05;;;;;;;;;;;;;;;5.36;46.74;102290.91;5062138;28;20385;-80
2022/03/20 05:04:30;;;;;;;;;;;;;;;5.40;47.35;102287.56;5058133;28;19921;-75
2022/03/20 05:06:56;;;;;;;;;;;;;;;5.29;46.94;102289.03;5054587;28;19933;-75
2022/03/20 05:14:49;;;;;;;;;;;;;;;5.13;48.59;102317.78;5053947;28;19928;-75
2022/03/20 05:17:15;;;;;;;;;;;;;;;5.43;47.46;102328.88;5053846;28;20392;-75
2022/03/20 05:19:41;;;;;;;;;;;;;;;5.59;45.31;102328.44;5061913;28;20279;-75
2022/03/20 05:22:10;;;;;;;;;;;;;;;5.86;45.31;102321.31;5060179;28;20063;-75
2022/03/20 05:24:35;;;;;;;;;;;;;;;6.08;44.44;102314.94;5052126;28;19924;-81
2022/03/20 05:27:01;;;;;;;;;;;;;;;5.87;44.32;102320.50;5058048;28;19943;-82
2022/03/20 05:29:26;;;;;;;;;;;;;;;6.05;44.62;102327.78;5053370;28;19932;-81
2022/03/20 05:31:53;;;;;;;;;;;;;;;6.16;44.13;102320.28;5055590;28;19928;-82
2022/03/20 05:34:18;;;;;;;;;;;;;;;6.15;44.21;102328.84;5054244;28;19929;-81
2022/03/20 05:36:44;;;;;;;;;;;;;;;6.20;44.10;102310.06;5058478;28;19923;-81
2022/03/20 05:39:09;;;;;;;;;;;;;;;5.95;44.33;102313.78;5064717;28;19960;-81
2022/03/20 05:41:46;;;;;;;;;;;;;;;6.14;44.30;102307.34;5059100;28;19921;-82
2022/03/20 05:44:16;;;;;;;;;;;;;;;6.27;45.45;102313.63;5054889;28;20015;-82
2022/03/20 05:46:46;;;;;;;;;;;;;;;6.41;43.84;102312.22;5053366;28;19924;-82
2022/03/20 05:49:11;;;;;;;;;;;;;;;6.34;44.97;102324.09;5061488;28;19975;-82
2022/03/20 05:51:37;;;;;;;;;;;;;;;6.58;44.16;102323.78;5056581;28;19932;-81
2022/03/20 05:54:03;;;;;;;;;;;;;;;6.53;44.99;102317.66;5054939;28;19917;-82
2022/03/20 05:59:12;;;;;;;;;;;;;;;6.60;44.29;102313.50;5054455;28;19936;-80
2022/03/20 06:01:37;;;;;;;;;;;;;;;6.64;44.54;102318.72;5048562;28;20361;-80
2022/03/20 06:04:05;;;;;;;;;;;;;;;6.60;44.49;102313.50;5053875;28;20023;-80
2022/03/20 06:06:31;;;;;;;;;;;;;;;6.49;44.68;102313.25;5036353;28;19987;-80
2022/03/20 06:08:56;;;;;;;;;;;;;;;6.60;44.69;102314.38;5056746;28;19929;-75
2022/03/20 06:11:21;;;;;;;;;;;;;;;6.63;44.24;102314.44;5062564;28;20381;-75
2022/03/20 06:13:48;;;;;;;;;;;;;;;6.70;44.03;102298.19;5058874;28;19921;-80
2022/03/20 06:16:17;;;;;;;;;;;;;;;6.69;43.73;102298.19;5049391;28;19920;-80
2022/03/20 06:18:43;;;;;;;;;;;;;;;6.67;43.73;102292.97;5060740;28;20003;-79
2022/03/20 06:21:09;;;;;;;;;;;;;;;6.75;43.84;102288.81;5051570;28;20016;-79
2022/03/20 06:23:34;;;;;;;;;;;;;;;6.91;43.80;102280.53;5052836;28;20027;-79
2022/03/20 06:26:00;;;;;;;;;;;;;;;6.93;43.25;102285.72;5057068;28;20448;-79
2022/03/20 06:28:26;;;;;;;;;;;;;;;6.82;42.61;102276.88;5032667;28;20408;-79
2022/03/20 06:30:51;;;;;;;;;;;;;;;6.89;43.57;102273.59;5048417;28;20362;-79
2022/03/20 06:33:17;;;;;;;;;;;;;;;6.91;42.68;102282.22;5050104;28;19909;-75
2022/03/20 06:35:42;;;;;;;;;;;;;;;6.88;42.94;102274.41;5052459;28;19921;-75
2022/03/20 06:38:07;;;;;;;;;;;;;;;6.87;43.02;102270.13;5046620;28;19921;-80
2022/03/20 06:40:33;;;;;;;;;;;;;;;6.85;43.72;102269.19;5046326;28;19974;-79
2022/03/20 06:42:58;;;;;;;;;;;;;;;7.05;43.55;102260.94;5050305;28;19983;-78
2022/03/20 06:45:24;;;;;;;;;;;;;;;6.92;42.98;102263.31;5044784;28;20305;-79
2022/03/20 06:47:50;;;;;;;;;;;;;;;6.88;42.48;102270.13;5027582;28;19920;-75
2022/03/20 06:50:16;;;;;;;;;;;;;;;6.90;42.32;102267.59;5042991;28;19946;-79
2022/03/20 06:52:41;;;;;;;;;;;;;;;7.00;42.57;102256.56;5045904;28;19936;-79
2022/03/20 06:55:08;;;;;;;;;;;;;;;6.94;42.18;102262.50;5044116;28;20312;-80
2022/03/20 06:57:34;;;;;;;;;;;;;;;7.25;42.32;102266.47;5049172;28;19912;-80
2022/03/20 06:59:59;;;;;;;;;;;;;;;7.21;42.11;102266.38;5037801;28;19921;-82
2022/03/20 07:02:26;;;;;;;;;;;;;;;7.14;42.11;102268.00;5046381;28;20542;-75
2022/03/20 07:04:52;;;;;;;;;;;;;;;7.47;42.03;102255.63;5046865;28;19986;-75
2022/03/20 07:07:18;;;;;;;;;;;;;;;7.42;41.29;102253.81;5036214;28;20033;-75
2022/03/20 07:09:43;;;;;;;;;;;;;;;7.47;41.16;102255.63;5049758;28;19916;-75
2022/03/20 07:12:09;;;;;;;;;;;;;;;7.29;40.92;102262.19;5046964;28;19970;-81
2022/03/20 07:14:34;;;;;;;;;;;;;;;7.43;41.58;102265.91;5040950;28;20359;-81
2022/03/20 07:17:00;;;;;;;;;;;;;;;7.21;41.61;102261.22;5052576;28;19924;-82
2022/03/20 07:19:26;;;;;;;;;;;;;;;7.30;41.84;102266.53;5058017;28;19927;-75
2022/03/20 07:21:52;;;;;;;;;;;;;;;7.48;41.44;102254.78;5051328;28;20548;-78
2022/03/20 07:24:17;;;;;;;;;;;;;;;7.55;40.09;102255.75;5035998;28;19921;-77
2022/03/20 07:29:32;;;;;;;;;;;;;;;7.20;41.54;102249.16;5046711;28;19965;-75
2022/03/20 07:32:04;;;;;;;;;;;;;;;7.25;42.64;102247.50;5029336;28;19948;-80
2022/03/20 07:34:29;;;;;;;;;;;;;;;7.26;42.33;102239.75;5045046;28;19921;-79
2022/03/20 07:36:55;;;;;;;;;;;;;;;7.13;42.94;102230.97;5046338;28;19923;-80
2022/03/20 07:39:20;;;;;;;;;;;;;;;7.28;43.19;102226.88;5048782;28;19924;-80
2022/03/20 07:41:46;;;;;;;;;;;;;;;7.35;43.14;102226.09;5041728;28;19929;-81
2022/03/20 07:44:11;;;;;;;;;;;;;;;7.23;42.71;102218.19;5053717;28;19920;-78
2022/03/20 07:46:38;;;;;;;;;;;;;;;7.29;43.54;102211.38;5043827;28;19929;-80
2022/03/20 07:49:04;;;;;;;;;;;;;;;7.30;41.87;102204.50;5046889;28;19979;-79
2022/03/20 07:51:30;;;;;;;;;;;;;;;7.33;42.80;102201.97;5051637;28;19928;-82
2022/03/20 07:53:56;;;;;;;;;;;;;;;7.21;43.78;102199.19;5044956;28;19921;-82
2022/03/20 07:56:22;;;;;;;;;;;;;;;7.29;43.31;102182.06;5030985;28;19952;-82
2022/03/20 07:58:48;;;;;;;;;;;;;;;7.25;42.91;102178.59;5054957;28;20016;-79
2022/03/20 08:01:13;;;;;;;;;;;;;;;7.46;42.74;102185.81;5050759;28;20008;-79
2022/03/20 08:03:40;;;;;;;;;;;;;;;7.43;43.56;102196.97;5055036;28;19919;-75
2022/03/20 08:06:07;;;;;;;;;;;;;;;7.51;42.90;102192.78;5054696;28;19920;-78
2022/03/20 08:08:33;;;;;;;;;;;;;;;7.84;41.73;102197.53;5037213;28;20320;-80
2022/03/20 08:10:58;;;;;;;;;;;;;;;7.91;40.90;102220.03;5056484;28;19925;-80
2022/03/20 08:13:24;;;;;;;;;;;;;;;8.03;40.26;102220.19;5030033;28;19924;-80
2022/03/20 08:15:49;;;;;;;;;;;;;;;7.61;41.63;102225.66;5057354;28;19931;-78
2022/03/20 08:18:15;;;;;;;;;;;;;;;7.78;41.46;102228.50;5055854;28;19912;-79
2022/03/20 08:20:40;;;;;;;;;;;;;;;7.89;41.43;102229.50;5049097;28;19921;-75
2022/03/20 08:23:06;;;;;;;;;;;;;;;7.64;42.01;102217.09;5049899;28;19955;-80
2022/03/20 08:25:31;;;;;;;;;;;;;;;7.83;42.65;102220.78;5055679;28;19977;-81
2022/03/20 08:27:56;;;;;;;;;;;;;;;7.97;41.32;102224.44;5053377;28;19986;-80
2022/03/20 08:30:22;;;;;;;;;;;;;;;8.19;39.95;102234.19;5051834;28;19917;-81
2022/03/20 08:32:47;;;;;;;;;;;;;;;8.17;40.92;102213.47;5030906;28;20070;-75
2022/03/20 08:35:14;;;;;;;;;;;;;;;8.16;41.29;102209.13;5048544;28;19960;-80
2022/03/20 08:37:46;;;;;;;;;;;;;;;8.56;45.75;102210.47;5048463;28;19925;-80
2022/03/20 08:40:16;;;;;;;;;;;;;;;8.50;40.69;102206.97;5048588;28;20015;-80
2022/03/20 08:42:49;;;;;;;;;;;;;;;8.29;41.35;102196.34;5047092;28;20454;-82
2022/03/20 08:45:15;;;;;;;;;;;;;;;8.44;40.80;102202.59;5056357;28;19916;-82
2022/03/20 08:47:41;;;;;;;;;;;;;;;8.70;44.05;102201.13;5031258;28;19928;-75
2022/03/20 08:50:06;;;;;;;;;;;;;;;8.53;41.12;102207.00;5052863;28;20507;-75
2022/03/20 08:52:32;;;;;;;;;;;;;;;8.58;39.78;102206.19;5052504;28;20257;-80
2022/03/20 08:54:57;;;;;;;;;;;;;;;8.57;40.38;102201.84;5054111;28;19920;-79
2022/03/20 08:57:25;;;;;;;;;;;;;;;8.71;39.90;102202.00;5068680;28;19928;-79
2022/03/20 08:59:51;;;;;;;;;;;;;;;8.54;40.66;102204.41;5058547;28;19921;-78
2022/03/20 09:02:17;;;;;;;;;;;;;;;8.72;40.35;102201.13;5058231;28;20311;-75
2022/03/20 09:04:42;;;;;;;;;;;;;;;8.51;39.86;102203.50;5047398;28;20436;-75
2022/03/20 09:07:07;;;;;;;;;;;;;;;8.48;40.15;102194.00;5048247;28;20037;-75
2022/03/20 09:09:33;;;;;;;;;;;;;;;8.61;40.02;102193.28;5060532;28;20341;-78
2022/03/20 09:11:59;;;;;;;;;;;;;;;8.73;40.13;102197.69;5051063;28;19924;-80
2022/03/20 09:14:25;;;;;;;;;;;;;;;8.47;40.70;102192.28;5054107;28;19983;-79
2022/03/20 09:19:35;;;;;;;;;;;;;;;8.76;40.72;102195.13;5049826;28;19928;-82
2022/03/20 09:22:00;;;;;;;;;;;;;;;9.11;44.23;102196.28;5060590;28;19944;-83
2022/03/20 09:24:25;;;;;;;;;;;;;;;9.20;43.75;102182.53;5057828;28;19925;-75
2022/03/20 09:26:51;;;;;;;;;;;;;;;9.12;39.59;102189.38;5054130;28;19933;-75
2022/03/20 09:29:17;;;;;;;;;;;;;;;8.99;42.12;102183.22;5054435;28;19963;-79
2022/03/20 09:31:42;;;;;;;;;;;;;;;9.09;39.41;102185.06;5049406;28;20300;-80
2022/03/20 09:34:08;;;;;;;;;;;;;;;9.08;39.03;102170.34;5054025;28;19923;-82
2022/03/20 09:36:33;;;;;;;;;;;;;;;9.09;41.15;102179.88;5056534;28;20392;-79
2022/03/20 09:38:59;;;;;;;;;;;;;;;9.32;41.06;102177.44;5038019;28;19917;-75
2022/03/20 09:41:30;;;;;;;;;;;;;;;9.40;39.59;102185.25;5056012;28;19921;-75
2022/03/20 09:43:55;;;;;;;;;;;;;;;9.45;40.33;102187.03;5047501;28;19928;-75
2022/03/20 09:46:21;;;;;;;;;;;;;;;9.48;39.66;102175.81;5048623;28;19924;-80
2022/03/20 09:48:47;;;;;;;;;;;;;;;9.32;39.42;102180.03;5060846;28;19970;-82
2022/03/20 09:51:12;;;;;;;;;;;;;;;9.44;45.31;102185.28;5057983;28;19927;-82
2022/03/20 09:53:38;;;;;;;;;;;;;;;9.55;44.59;102187.94;5051512;28;19917;-79
2022/03/20 09:56:06;;;;;;;;;;;;;;;9.79;45.01;102190.66;5051956;28;19970;-80
2022/03/20 09:58:31;;;;;;;;;;;;;;;9.54;38.61;102175.84;5038613;28;21145;-81
2022/03/20 10:00:56;;;;;;;;;;;;;;;9.59;41.20;102184.50;5052594;28;19955;-78
2022/03/20 10:03:23;;;;;;;;;;;;;;;9.87;42.95;102183.78;5057848;28;19970;-79
2022/03/20 10:06:09;;;;;;;;;;;;;;;9.91;43.51;102182.97;5061374;28;19925;-80
2022/03/20 10:08:34;;;;;;;;;;;;;;;9.81;38.82;102181.19;5050820;28;19917;-79
2022/03/20 10:11:13;;;;;;;;;;;;;;;9.94;40.71;102184.69;5055767;28;19951;-82
2022/03/20 10:13:38;;;;;;;;;;;;;;;10.00;44.07;102185.59;5033981;28;20566;-82
2022/03/20 10:16:16;;;;;;;;;;;;;;;10.17;44.14;102183.06;5049720;28;19928;-81
2022/03/20 10:18:41;;;;;;;;;;;;;;;9.90;39.35;102176.03;5049699;28;19913;-80
2022/03/20 10:21:09;;;;;;;;;;;;;;;9.74;39.03;102171.63;5051533;28;20055;-80
2022/03/20 10:23:36;;;;;;;;;;;;;;;9.86;39.08;102162.16;5029485;28;19966;-80
2022/03/20 10:26:05;;;;;;;;;;;;;;;10.00;40.80;102170.03;5057077;28;20361;-80
2022/03/20 10:28:41;;;;;;;;;;;;;;;9.90;40.18;102160.47;5053105;28;20401;-80
2022/03/20 10:31:09;;;;;;;;;;;;;;;10.12;42.91;102161.41;5055055;28;19921;-82
2022/03/20 10:33:38;;;;;;;;;;;;;;;9.95;40.46;102170.88;5050064;28;19963;-82
2022/03/20 10:36:23;;;;;;;;;;;;;;;10.03;42.86;102167.44;5048375;28;19968;-75
2022/03/20 10:38:49;;;;;;;;;;;;;;;10.25;39.19;102152.81;5061929;28;19920;-75
2022/03/20 10:41:19;;;;;;;;;;;;;;;9.95;39.83;102153.59;5060047;28;20403;-75
2022/03/20 10:43:45;;;;;;;;;;;;;;;10.10;41.34;102148.44;5044160;28;19966;-75
2022/03/20 10:46:17;;;;;;;;;;;;;;;10.14;40.44;102160.53;5054960;28;19928;-75
2022/03/20 10:48:43;;;;;;;;;;;;;;;9.98;39.79;102155.31;5050781;28;20392;-75
2022/03/20 10:51:08;;;;;;;;;;;;;;;10.15;45.85;102170.09;5055468;28;19921;-82
2022/03/20 10:53:53;;;;;;;;;;;;;;;10.04;40.17;102148.41;5048372;28;19944;-75
2022/03/20 10:56:18;;;;;;;;;;;;;;;10.33;45.20;102154.56;5054015;28;20591;-82
2022/03/20 10:58:45;;;;;;;;;;;;;;;10.28;41.65;102139.81;5053505;28;19966;-82
2022/03/20 11:01:11;;;;;;;;;;;;;;;10.01;39.89;102152.72;5048772;28;19950;-79
2022/03/20 11:03:37;;;;;;;;;;;;;;;10.04;42.64;102174.38;5066798;28;19927;-81
2022/03/20 11:06:07;;;;;;;;;;;;;;;10.17;43.77;102170.94;5064421;28;19924;-82
2022/03/20 11:08:32;;;;;;;;;;;;;;;10.04;40.21;102166.59;5049468;28;19916;-75
2022/03/20 11:10:58;;;;;;;;;;;;;;;10.40;42.19;102173.63;5053854;28;19921;-78
2022/03/20 11:13:26;;;;;;;;;;;;;;;10.08;40.89;102159.69;5058932;28;19917;-80
2022/03/20 11:15:53;;;;;;;;;;;;;;;10.22;44.07;102165.78;5051020;28;20011;-75
2022/03/20 11:18:20;;;;;;;;;;;;;;;10.19;42.35;102160.56;5055684;28;20015;-75
2022/03/20 11:20:48;;;;;;;;;;;;;;;10.47;45.38;102168.44;5062653;28;19917;-75
2022/03/20 11:23:14;;;;;;;;;;;;;;;10.35;41.83;102159.72;5051361;28;19920;-75
2022/03/20 11:25:42;;;;;;;;;;;;;;;10.38;45.31;102163.22;5054809;28;20278;-75
2022/03/20 11:28:10;;;;;;;;;;;;;;;10.50;42.07;102151.97;5054671;28;19921;-78
2022/03/20 11:30:36;;;;;;;;;;;;;;;10.37;41.24;102152.84;5049956;28;20014;-82
2022/03/20 11:33:02;;;;;;;;;;;;;;;10.62;45.03;102151.97;5058668;28;19985;-80
2022/03/20 11:35:30;;;;;;;;;;;;;;;10.51;42.40;102155.44;5058746;28;19925;-78
2022/03/20 11:37:58;;;;;;;;;;;;;;;10.60;43.55;102158.91;5056060;28;19921;-75
2022/03/20 11:40:25;;;;;;;;;;;;;;;10.69;46.72;102151.13;5060454;28;19916;-78
2022/03/20 11:43:11;;;;;;;;;;;;;;;10.70;45.75;102149.41;5062399;28;19987;-78
2022/03/20 11:45:36;;;;;;;;;;;;;;;10.63;43.48;102158.94;5050097;28;19924;-78
2022/03/20 11:48:15;;;;;;;;;;;;;;;10.53;43.36;102159.78;5063732;28;19923;-78
2022/03/20 11:50:41;;;;;;;;;;;;;;;10.74;46.86;102158.91;5052907;28;19927;-75
2022/03/20 11:53:09;;;;;;;;;;;;;;;10.60;45.30;102164.13;5052494;28;19921;-75
2022/03/20 11:55:36;;;;;;;;;;;;;;;10.60;43.78;102164.13;5053917;28;19931;-75
2022/03/20 11:58:05;;;;;;;;;;;;;;;10.58;44.74;102157.19;5061933;28;19917;-75
2022/03/20 12:00:31;;;;;;;;;;;;;;;10.49;43.96;102157.19;5052361;28;20011;-82
2022/03/20 12:03:10;;;;;;;;;;;;;;;10.46;43.87;102148.50;5058990;28;19924;-82
2022/03/20 12:05:39;;;;;;;;;;;;;;;10.40;43.56;102145.03;5043156;28;19924;-82
2022/03/20 12:08:23;;;;;;;;;;;;;;;10.36;44.34;102138.97;5046731;28;20454;-75
2022/03/20 12:10:48;;;;;;;;;;;;;;;10.45;44.50;102133.78;5047974;28;20452;-75
2022/03/20 12:13:13;;;;;;;;;;;;;;;10.44;45.98;102129.44;5047079;28;19928;-75
2022/03/20 12:15:43;;;;;;;;;;;;;;;10.32;45.34;102124.22;5044670;28;19966;-80
2022/03/20 12:18:10;;;;;;;;;;;;;;;10.40;44.68;102121.66;5065365;28;19920;-79
2022/03/20 12:20:48;;;;;;;;;;;;;;;10.59;44.25;102113.00;5037091;28;19924;-78
2022/03/20 12:23:40;;;;;;;;;;;;;;;10.42;44.96;102115.59;5061634;28;19944;-78
2022/03/20 12:26:26;;;;;;;;;;;;;;;10.47;44.92;102116.47;5051404;28;20023;-79
2022/03/20 12:28:51;;;;;;;;;;;;;;;10.52;44.79;102107.81;5065284;28;19920;-82
2022/03/20 12:31:24;;;;;;;;;;;;;;;10.54;45.39;102116.47;5039100;28;19921;-82
2022/03/20 12:34:10;;;;;;;;;;;;;;;10.50;45.35;102122.53;5060636;28;19928;-81
2022/03/20 12:36:35;;;;;;;;;;;;;;;10.54;45.31;102119.06;5067610;28;19967;-78
2022/03/20 12:39:00;;;;;;;;;;;;;;;10.66;45.49;102119.06;5043448;28;20409;-75
2022/03/20 12:41:26;;;;;;;;;;;;;;;10.83;47.88;102114.72;5052742;28;19924;-78
2022/03/20 12:43:59;;;;;;;;;;;;;;;10.73;44.82;102126.84;5054063;28;19920;-78
2022/03/20 12:46:25;;;;;;;;;;;;;;;10.61;45.46;102126.00;5051031;28;19924;-78
2022/03/20 12:48:51;;;;;;;;;;;;;;;10.66;47.05;102124.28;5049281;28;19985;-78
2022/03/20 12:51:20;;;;;;;;;;;;;;;10.77;45.61;102117.34;5059965;28;19921;-78
2022/03/20 12:53:46;;;;;;;;;;;;;;;10.73;45.15;102118.22;5034050;28;19921;-78
2022/03/20 12:56:28;;;;;;;;;;;;;;;10.83;46.07;102122.53;5058196;28;19924;-78
2022/03/20 12:58:53;;;;;;;;;;;;;;;10.82;47.07;102111.25;5058154;28;19956;-81
2022/03/20 13:01:19;;;;;;;;;;;;;;;10.65;45.57;102117.34;5044223;28;20490;-81
2022/03/20 13:03:45;;;;;;;;;;;;;;;10.75;46.11;102112.16;5061052;28;19916;-81
2022/03/20 13:06:10;;;;;;;;;;;;;;;10.69;45.67;102122.53;5045156;28;20003;-80
2022/03/20 13:08:36;;;;;;;;;;;;;;;10.75;45.93;102130.34;5036894;28;20015;-77
2022/03/20 13:11:06;;;;;;;;;;;;;;;10.79;47.85;102115.63;5055536;28;19921;-78
2022/03/20 13:13:36;;;;;;;;;;;;;;;10.70;46.94;102128.63;5068855;28;19928;-78
2022/03/20 13:16:02;;;;;;;;;;;;;;;10.69;47.46;102130.34;5055925;28;19928;-80